Time;durP1;ratioP1;P1;durP2;ratioP2;P2;SDS_P1;SDS_P2;PMS_P1;PMS_P2;Temp;Humidity;BMP_temperature;BMP_pressure;BME280_temperature;BME280_humidity;BME280_pressure;Samples;Min_cycle;Max_cycle;Signal;HPM_P1;HPM_P2
2023/09/28 00:01:39;;;;;;;5.77;3.97;;;13.80;99.90;13.80;100725.00;;;;4993369;28;87695;-66
2023/09/28 00:04:06;;;;;;;5.97;3.70;;;13.80;99.90;13.80;100712.00;;;;4987963;27;88674;-66
2023/09/28 00:06:31;;;;;;;5.33;3.97;;;13.80;99.90;13.80;100719.00;;;;4992039;28;88705;-66
2023/09/28 00:08:58;;;;;;;3.90;3.00;;;13.80;99.90;13.80;100720.00;;;;4991449;28;100342;-66
2023/09/28 00:11:23;;;;;;;3.40;3.03;;;13.80;99.90;13.80;100714.00;;;;4991127;28;87868;-66
2023/09/28 00:13:49;;;;;;;4.17;3.77;;;13.70;99.90;13.80;100715.00;;;;4956221;28;99941;-66
2023/09/28 00:16:14;;;;;;;3.87;3.40;;;13.80;99.90;13.80;100714.00;;;;4990161;28;117433;-66
2023/09/28 00:18:40;;;;;;;5.13;4.00;;;13.80;99.90;13.70;100727.00;;;;4991090;28;110323;-65
2023/09/28 00:21:12;;;;;;;5.80;3.97;;;13.80;99.90;13.70;100721.00;;;;4990137;28;107074;-65
2023/09/28 00:23:38;;;;;;;5.97;4.17;;;13.80;99.90;13.70;100721.00;;;;4990420;28;115274;-65
2023/09/28 00:26:04;;;;;;;5.03;3.45;;;13.70;99.90;13.70;100726.00;;;;4991218;28;117233;-66
2023/09/28 00:28:30;;;;;;;4.78;3.95;;;13.70;99.90;13.70;100724.00;;;;4989322;28;88438;-65
2023/09/28 00:30:56;;;;;;;9.73;4.43;;;13.70;99.90;13.60;100711.00;;;;4993479;28;106634;-66
2023/09/28 00:33:21;;;;;;;5.27;3.87;;;13.60;99.90;13.60;100722.00;;;;4991191;27;117870;-66
2023/09/28 00:35:47;;;;;;;5.63;4.47;;;13.60;99.90;13.60;100721.00;;;;4990913;28;116206;-66
2023/09/28 00:38:13;;;;;;;5.63;4.00;;;13.60;99.90;13.50;100720.00;;;;4987383;28;87969;-66
2023/09/28 00:40:39;;;;;;;3.60;3.27;;;13.70;99.90;13.50;100721.00;;;;4993284;28;88902;-66
2023/09/28 00:43:05;;;;;;;4.93;3.90;;;13.50;99.90;13.50;100720.00;;;;4988253;28;89193;-65
2023/09/28 00:45:32;;;;;;;5.13;3.97;;;13.50;99.90;13.50;100716.00;;;;4987235;28;88450;-65
2023/09/28 00:48:04;;;;;;;6.47;3.43;;;13.50;99.90;13.50;100717.00;;;;4991596;28;89246;-66
2023/09/28 00:50:33;;;;;;;6.07;3.60;;;13.50;99.90;13.50;100717.00;;;;4971215;28;87771;-66
2023/09/28 00:53:08;;;;;;;4.33;3.93;;;13.30;99.90;13.50;100715.00;;;;4974586;28;88183;-66
2023/09/28 00:55:36;;;;;;;4.67;3.53;;;13.50;99.90;13.50;100717.00;;;;4990674;28;88813;-68
2023/09/28 00:58:05;;;;;;;4.50;3.97;;;13.50;99.90;13.40;100710.00;;;;4993660;28;87116;-66
2023/09/28 01:00:34;;;;;;;4.83;4.13;;;13.50;99.90;13.40;100715.00;;;;4992908;28;87602;-65
2023/09/28 01:03:05;;;;;;;4.97;3.63;;;13.40;99.90;13.40;100719.00;;;;4989248;28;88385;-67
2023/09/28 01:05:38;;;;;;;5.73;3.70;;;13.40;99.90;13.40;100715.00;;;;4992820;28;88915;-66
2023/09/28 01:08:11;;;;;;;4.43;4.03;;;13.40;99.90;13.30;100714.00;;;;4972310;28;87599;-65
2023/09/28 01:10:40;;;;;;;4.63;3.87;;;13.30;99.90;13.30;100712.00;;;;4995008;28;88134;-67
2023/09/28 01:13:11;;;;;;;3.60;3.30;;;13.30;99.90;13.20;100707.00;;;;4989900;28;88105;-67
2023/09/28 01:15:38;;;;;;;3.33;2.80;;;13.30;99.90;13.20;100715.00;;;;4980282;28;88987;-67
2023/09/28 01:18:06;;;;;;;4.87;3.43;;;13.20;99.90;13.20;100713.00;;;;4988826;28;87905;-67
2023/09/28 01:20:35;;;;;;;4.00;3.20;;;13.20;99.90;13.10;100710.00;;;;4976699;28;87953;-65
2023/09/28 01:23:03;;;;;;;7.43;3.73;;;13.10;99.90;13.10;100710.00;;;;4990378;28;88379;-67
2023/09/28 01:25:28;;;;;;;6.20;3.47;;;13.10;99.90;13.10;100708.00;;;;4988300;28;87928;-67
2023/09/28 01:27:54;;;;;;;5.43;4.17;;;13.10;99.90;13.10;100714.00;;;;4995695;28;87924;-65
2023/09/28 01:30:20;;;;;;;3.90;3.50;;;13.10;99.90;13.00;100711.00;;;;4988704;28;109011;-65
2023/09/28 01:32:46;;;;;;;5.40;3.27;;;13.10;99.90;13.00;100713.00;;;;4995809;27;88534;-65
2023/09/28 01:35:12;;;;;;;7.27;4.43;;;13.00;99.90;13.00;100711.00;;;;4972978;28;102686;-66
2023/09/28 01:38:10;;;;;;;4.53;3.17;;;13.00;99.90;13.00;100712.00;;;;4986605;28;87971;-67
2023/09/28 01:40:37;;;;;;;4.37;3.50;;;13.00;99.90;13.00;100707.00;;;;4991805;28;87576;-66
2023/09/28 01:43:03;;;;;;;3.53;3.20;;;13.00;99.90;13.00;100712.00;;;;4987799;28;104793;-66
2023/09/28 01:45:29;;;;;;;6.33;4.43;;;12.90;99.90;13.00;100716.00;;;;4990051;28;119046;-65
2023/09/28 01:47:54;;;;;;;4.33;3.93;;;12.90;99.90;12.90;100715.00;;;;4994504;28;86980;-65
2023/09/28 01:50:20;;;;;;;4.60;3.13;;;12.90;99.90;12.90;100715.00;;;;4987524;28;107593;-66
2023/09/28 01:52:46;;;;;;;4.83;4.17;;;12.90;99.90;12.90;100713.00;;;;4989088;28;117650;-65
2023/09/28 01:55:12;;;;;;;4.87;3.20;;;12.90;99.90;12.90;100712.00;;;;4990110;28;117746;-66
2023/09/28 01:57:37;;;;;;;4.70;3.97;;;13.00;99.90;12.90;100714.00;;;;4991237;28;87903;-65
2023/09/28 02:00:14;;;;;;;6.23;4.37;;;12.90;99.90;12.90;100713.00;;;;4993506;28;108749;-66
2023/09/28 02:02:42;;;;;;;3.70;2.97;;;12.90;99.90;12.90;100710.00;;;;4991097;28;88431;-66
2023/09/28 02:05:08;;;;;;;3.67;3.30;;;12.90;99.90;12.90;100710.00;;;;4975099;28;88301;-66
2023/09/28 02:07:35;;;;;;;5.47;3.53;;;12.90;99.90;12.90;100715.00;;;;4988933;27;87923;-65
2023/09/28 02:10:01;;;;;;;4.63;3.10;;;12.90;99.90;12.80;100708.00;;;;4990949;28;108057;-66
2023/09/28 02:12:27;;;;;;;4.27;3.53;;;12.90;99.90;12.80;100702.00;;;;4989508;28;98079;-66
2023/09/28 02:14:55;;;;;;;2.87;2.43;;;12.80;99.90;12.80;100710.00;;;;4990564;28;88245;-66
2023/09/28 02:17:20;;;;;;;3.70;2.57;;;12.80;99.90;12.80;100708.00;;;;4988181;28;111456;-67
2023/09/28 02:19:47;;;;;;;4.50;3.10;;;12.80;99.90;12.80;100706.00;;;;4985093;28;88824;-66
2023/09/28 02:22:14;;;;;;;3.33;2.50;;;12.80;99.90;12.70;100712.00;;;;4990646;28;88469;-66
2023/09/28 02:24:39;;;;;;;3.23;2.70;;;12.80;99.90;12.70;100713.00;;;;4986536;28;88375;-66
2023/09/28 02:27:05;;;;;;;6.23;4.57;;;12.70;99.90;12.60;100713.00;;;;4985846;28;110835;-65
2023/09/28 02:29:31;;;;;;;3.90;3.30;;;12.70;99.90;12.60;100716.00;;;;4990551;27;109267;-65
2023/09/28 02:31:56;;;;;;;4.20;3.80;;;12.60;99.90;12.60;100714.00;;;;4988479;27;109766;-65
2023/09/28 02:34:22;;;;;;;4.17;3.00;;;12.60;99.90;12.60;100722.00;;;;4988458;28;115275;-65
2023/09/28 02:36:48;;;;;;;10.40;4.17;;;12.60;99.90;12.50;100714.00;;;;4993712;28;111092;-67
2023/09/28 02:39:14;;;;;;;6.00;3.53;;;12.50;99.90;12.50;100710.00;;;;4988823;28;87979;-66
2023/09/28 02:41:40;;;;;;;5.43;3.90;;;12.50;99.90;12.50;100714.00;;;;4987607;28;88135;-66
2023/09/28 02:44:06;;;;;;;4.10;3.40;;;12.50;99.90;12.40;100716.00;;;;4986358;28;102751;-66
2023/09/28 02:46:31;;;;;;;3.73;3.33;;;12.50;99.90;12.40;100722.00;;;;4990837;28;87924;-66
2023/09/28 02:48:57;;;;;;;4.07;3.17;;;12.40;99.90;12.40;100733.00;;;;4969577;28;87638;-65
2023/09/28 02:51:23;;;;;;;3.33;3.03;;;12.40;99.90;12.30;100742.00;;;;4988083;27;117059;-63
2023/09/28 02:53:49;;;;;;;3.27;2.47;;;12.40;99.90;12.30;100738.00;;;;4989562;28;88409;-65
2023/09/28 02:56:14;;;;;;;7.50;3.47;;;12.30;99.90;12.20;100729.00;;;;4989984;28;88068;-65
2023/09/28 02:58:40;;;;;;;5.20;3.70;;;12.30;99.90;12.20;100736.00;;;;4986398;28;108779;-67
2023/09/28 03:01:07;;;;;;;4.40;3.97;;;12.30;99.90;12.20;100726.00;;;;4990724;27;116896;-65
2023/09/28 03:03:32;;;;;;;4.77;4.00;;;12.20;99.90;12.20;100736.00;;;;4998270;28;88190;-67
2023/09/28 03:05:58;;;;;;;5.70;3.53;;;12.20;99.90;12.20;100716.00;;;;4993648;28;108375;-66
2023/09/28 03:08:25;;;;;;;6.37;3.77;;;12.10;99.90;12.10;100724.00;;;;4995498;28;88663;-67
2023/09/28 03:10:53;;;;;;;7.97;4.00;;;12.20;99.90;12.10;100718.00;;;;4993166;28;89139;-66
2023/09/28 03:13:19;;;;;;;6.10;4.10;;;12.10;99.90;12.10;100720.00;;;;4993467;28;88828;-66
2023/09/28 03:15:45;;;;;;;4.27;3.77;;;12.10;99.90;12.00;100730.00;;;;4991031;28;110093;-67
2023/09/28 03:18:13;;;;;;;5.87;4.03;;;12.00;99.90;12.00;100735.00;;;;4989602;28;92591;-67
2023/09/28 03:20:43;;;;;;;6.70;3.37;;;12.00;99.90;12.00;100735.00;;;;4970974;28;88278;-67
2023/09/28 03:23:08;;;;;;;5.67;4.37;;;12.00;99.90;12.00;100737.00;;;;4990764;28;88801;-67
2023/09/28 03:25:34;;;;;;;5.80;3.87;;;12.00;99.90;12.00;100730.00;;;;4994101;28;111245;-67
2023/09/28 03:28:00;;;;;;;8.70;4.37;;;12.00;99.90;12.00;100731.00;;;;4976173;27;87670;-65
2023/09/28 03:30:26;;;;;;;4.40;3.40;;;12.00;99.90;12.00;100739.00;;;;4993732;28;89233;-68
2023/09/28 03:32:53;;;;;;;4.93;3.93;;;12.00;99.90;12.00;100732.00;;;;4977628;28;99587;-66
2023/09/28 03:35:19;;;;;;;6.20;3.87;;;12.00;99.90;11.90;100733.00;;;;4994215;28;88033;-65
2023/09/28 03:37:47;;;;;;;4.33;3.93;;;12.00;99.90;11.90;100739.00;;;;4992389;28;87862;-66
2023/09/28 03:40:14;;;;;;;3.43;3.07;;;12.00;99.90;11.90;100741.00;;;;4991272;28;88615;-66
2023/09/28 03:42:41;;;;;;;6.60;3.87;;;11.90;99.90;11.90;100744.00;;;;4989465;28;88128;-65
2023/09/28 03:45:08;;;;;;;5.17;3.10;;;11.90;99.90;11.80;100741.00;;;;4988579;28;87375;-66
2023/09/28 03:47:36;;;;;;;4.00;3.47;;;11.90;99.90;11.80;100741.00;;;;4971824;28;87819;-66
2023/09/28 03:50:03;;;;;;;4.03;3.67;;;11.90;99.90;11.80;100742.00;;;;4993667;28;87637;-66
2023/09/28 03:52:29;;;;;;;4.63;4.10;;;11.80;99.90;11.80;100742.00;;;;4996609;28;87707;-67
2023/09/28 03:54:56;;;;;;;5.63;4.17;;;11.80;99.90;11.80;100740.00;;;;4975906;28;87959;-65
2023/09/28 03:57:22;;;;;;;5.63;4.33;;;11.90;99.90;11.80;100731.00;;;;4990543;28;89186;-66
2023/09/28 03:59:49;;;;;;;5.93;4.27;;;11.80;99.90;11.80;100738.00;;;;4993915;28;88261;-65
2023/09/28 04:02:15;;;;;;;4.13;3.73;;;11.80;99.90;11.80;100726.00;;;;4994349;28;87995;-67
2023/09/28 04:04:41;;;;;;;4.63;3.17;;;11.80;99.90;11.70;100732.00;;;;4970718;28;87849;-67
2023/09/28 04:07:08;;;;;;;5.57;3.67;;;11.70;99.90;11.70;100737.00;;;;4989175;28;87808;-66
2023/09/28 04:09:34;;;;;;;7.47;4.27;;;11.70;99.90;11.70;100725.00;;;;4993593;28;88587;-66
2023/09/28 04:12:00;;;;;;;8.17;3.70;;;11.70;99.90;11.70;100730.00;;;;4992733;27;113243;-66
2023/09/28 04:14:27;;;;;;;3.77;2.70;;;11.70;99.90;11.70;100726.00;;;;4989795;28;102249;-67
2023/09/28 04:16:53;;;;;;;5.37;3.97;;;11.70;99.90;11.70;100724.00;;;;4994624;28;87497;-67
2023/09/28 04:19:19;;;;;;;4.13;3.50;;;11.70;99.90;11.70;100736.00;;;;4991476;27;105265;-65
2023/09/28 04:21:45;;;;;;;4.07;3.53;;;11.70;99.90;11.70;100731.00;;;;4981872;28;90043;-67
2023/09/28 04:24:11;;;;;;;5.30;3.13;;;11.70;99.90;11.70;100723.00;;;;4974544;28;87719;-66
2023/09/28 04:26:37;;;;;;;3.73;3.00;;;11.70;99.90;11.70;100730.00;;;;4997252;27;88087;-66
2023/09/28 04:29:03;;;;;;;5.27;3.03;;;11.70;99.90;11.70;100720.00;;;;4989264;28;103882;-66
2023/09/28 04:31:28;;;;;;;6.83;4.23;;;11.80;99.90;11.70;100720.00;;;;4992059;28;95059;-67
2023/09/28 04:33:56;;;;;;;5.70;3.67;;;11.70;99.90;11.70;100718.00;;;;4994431;28;109575;-67
2023/09/28 04:36:22;;;;;;;5.90;4.10;;;11.70;99.90;11.60;100721.00;;;;4988680;28;87853;-65
2023/09/28 04:38:49;;;;;;;3.77;3.33;;;11.70;99.90;11.60;100720.00;;;;4988925;28;88344;-65
2023/09/28 04:41:16;;;;;;;3.53;3.23;;;11.70;99.90;11.60;100723.00;;;;4988997;28;88250;-66
2023/09/28 04:43:42;;;;;;;4.67;3.80;;;11.60;99.90;11.60;100717.00;;;;4989754;28;87101;-66
2023/09/28 04:46:07;;;;;;;5.50;3.47;;;11.60;99.90;11.60;100724.00;;;;4985481;28;108514;-66
2023/09/28 04:48:33;;;;;;;4.83;3.20;;;11.60;99.90;11.60;100719.00;;;;4986612;28;115651;-66
2023/09/28 04:50:59;;;;;;;4.37;3.10;;;11.60;99.90;11.60;100730.00;;;;4979256;28;118311;-65
2023/09/28 04:53:26;;;;;;;7.03;4.60;;;11.60;99.90;11.60;100731.00;;;;4959255;28;87748;-66
2023/09/28 04:55:52;;;;;;;3.83;3.17;;;11.60;99.90;11.60;100724.00;;;;4995288;28;87662;-66
2023/09/28 04:58:18;;;;;;;6.67;4.10;;;11.60;99.90;11.60;100720.00;;;;4976816;28;87883;-66
2023/09/28 05:00:44;;;;;;;5.43;4.10;;;12.00;99.90;11.60;100723.00;;;;4971237;28;87559;-66
2023/09/28 05:03:11;;;;;;;7.43;4.73;;;11.60;99.90;11.60;100729.00;;;;4974977;28;87256;-68
2023/09/28 05:05:37;;;;;;;4.23;3.10;;;11.60;99.90;11.60;100733.00;;;;4988498;28;88156;-66
2023/09/28 05:08:03;;;;;;;4.10;3.13;;;11.60;99.90;11.60;100725.00;;;;4993178;28;87901;-66
2023/09/28 05:10:29;;;;;;;3.93;3.27;;;11.60;99.90;11.60;100723.00;;;;4990721;28;100787;-66
2023/09/28 05:12:55;;;;;;;5.73;4.30;;;11.70;99.90;11.60;100724.00;;;;4983469;28;87853;-66
2023/09/28 05:15:20;;;;;;;7.10;4.40;;;11.70;99.90;11.70;100730.00;;;;4979213;28;87847;-65
2023/09/28 05:17:47;;;;;;;4.50;3.27;;;11.70;99.90;11.70;100732.00;;;;4987330;28;117088;-66
2023/09/28 05:20:13;;;;;;;6.83;4.43;;;11.70;99.90;11.70;100742.00;;;;4987498;28;105793;-66
2023/09/28 05:22:39;;;;;;;4.77;3.80;;;11.70;99.90;11.70;100739.00;;;;4983098;28;87786;-66
2023/09/28 05:25:06;;;;;;;4.77;3.00;;;11.80;99.90;11.80;100745.00;;;;4988275;27;107679;-66
2023/09/28 05:27:33;;;;;;;3.43;3.13;;;11.80;99.90;11.80;100747.00;;;;4991277;28;86936;-67
2023/09/28 05:29:59;;;;;;;5.73;3.70;;;11.80;99.90;11.90;100751.00;;;;4975977;28;88355;-67
2023/09/28 05:32:25;;;;;;;5.17;3.90;;;11.90;99.90;12.00;100758.00;;;;4991514;28;101431;-66
2023/09/28 05:34:51;;;;;;;3.97;3.57;;;12.20;99.90;12.10;100762.00;;;;4993496;28;95183;-66
2023/09/28 05:37:16;;;;;;;5.97;3.93;;;12.10;99.90;12.20;100756.00;;;;4992820;28;88263;-65
2023/09/28 05:39:42;;;;;;;4.00;3.50;;;12.10;99.90;12.30;100745.00;;;;4991639;28;118946;-66
2023/09/28 05:42:08;;;;;;;3.73;3.43;;;12.20;99.90;12.50;100759.00;;;;4995441;28;87724;-66
2023/09/28 05:44:34;;;;;;;7.67;3.57;;;12.40;99.90;12.60;100751.00;;;;4994851;28;87596;-66
2023/09/28 05:47:00;;;;;;;3.93;2.83;;;12.50;99.90;12.80;100754.00;;;;4986618;28;87616;-66
2023/09/28 05:49:26;;;;;;;4.10;3.13;;;12.70;99.90;13.00;100753.00;;;;4991386;28;87729;-66
2023/09/28 05:51:53;;;;;;;4.23;3.93;;;12.90;99.90;13.20;100757.00;;;;4991808;28;86921;-66
2023/09/28 05:54:18;;;;;;;6.10;3.73;;;13.10;99.90;13.40;100760.00;;;;4993342;28;87754;-66
2023/09/28 05:56:44;;;;;;;5.20;3.90;;;13.30;99.90;13.60;100762.00;;;;4987505;28;117661;-66
2023/09/28 05:59:10;;;;;;;4.10;3.70;;;13.40;99.90;13.70;100762.00;;;;4987938;28;88553;-66
2023/09/28 06:01:39;;;;;;;5.80;4.37;;;13.60;99.90;13.90;100767.00;;;;4988981;28;87635;-65
2023/09/28 06:04:05;;;;;;;5.97;3.60;;;13.80;99.90;14.20;100773.00;;;;4990949;28;87675;-65
2023/09/28 06:06:31;;;;;;;4.10;3.47;;;14.00;99.90;14.40;100777.00;;;;4977356;28;90255;-66
2023/09/28 06:08:57;;;;;;;6.23;4.43;;;14.30;99.90;14.70;100785.00;;;;4994161;28;107832;-65
2023/09/28 06:11:31;;;;;;;4.60;3.63;;;14.50;99.90;14.90;100781.00;;;;5001792;28;112470;-66
2023/09/28 06:13:57;;;;;;;4.05;3.55;;;14.80;99.90;15.20;100788.00;;;;4983968;28;107280;-66
2023/09/28 06:16:25;;;;;;;6.20;3.15;;;15.10;99.90;15.50;100779.00;;;;4990281;27;117551;-64
2023/09/28 06:18:52;;;;;;;7.13;3.60;;;15.30;99.90;15.80;100782.00;;;;4988239;28;88132;-65
2023/09/28 06:21:18;;;;;;;3.47;3.03;;;15.60;99.90;16.10;100788.00;;;;4990063;28;88006;-66
2023/09/28 06:23:43;;;;;;;3.50;3.13;;;15.90;99.90;16.40;100781.00;;;;4959207;28;108665;-65
2023/09/28 06:26:09;;;;;;;5.13;3.00;;;16.20;99.90;16.70;100786.00;;;;4990957;28;118113;-66
2023/09/28 06:28:44;;;;;;;4.25;3.13;;;16.60;99.90;16.90;100791.00;;;;4973645;28;107868;-65
2023/09/28 06:31:10;;;;;;;5.03;2.55;;;16.80;99.90;17.20;100790.00;;;;4992936;28;110728;-65
2023/09/28 06:33:38;;;;;;;5.43;2.58;;;17.00;99.90;17.50;100802.00;;;;4992757;28;89309;-65
2023/09/28 06:36:04;;;;;;;5.25;2.88;;;17.20;99.90;17.70;100797.00;;;;4989504;27;116822;-66
2023/09/28 06:38:55;;;;;;;5.07;3.15;;;17.50;99.90;18.10;100800.00;;;;4993860;28;88031;-66
2023/09/28 06:41:21;;;;;;;7.43;2.65;;;17.80;99.90;18.30;100804.00;;;;4973004;28;87091;-66
2023/09/28 06:43:48;;;;;;;2.72;1.98;;;18.10;99.90;18.60;100799.00;;;;4993966;28;97872;-65
2023/09/28 06:46:14;;;;;;;3.72;2.60;;;18.40;99.90;18.80;100801.00;;;;4996963;28;87889;-64
2023/09/28 06:48:40;;;;;;;3.22;1.90;;;18.60;99.90;19.00;100795.00;;;;4991222;27;90004;-65
2023/09/28 06:51:06;;;;;;;5.75;1.95;;;18.80;99.90;19.20;100796.00;;;;4982909;28;87411;-65
2023/09/28 06:53:32;;;;;;;2.47;1.80;;;19.00;99.90;19.40;100792.00;;;;4995364;28;92892;-66
2023/09/28 06:56:02;;;;;;;4.55;2.35;;;19.20;99.80;19.60;100786.00;;;;4992694;28;88174;-66
2023/09/28 06:58:28;;;;;;;3.35;2.05;;;20.40;99.90;19.80;100788.00;;;;4977155;28;90825;-64
2023/09/28 07:00:53;;;;;;;3.78;2.30;;;19.60;98.60;20.00;100797.00;;;;4992860;28;98798;-64
2023/09/28 07:03:20;;;;;;;4.50;2.58;;;19.80;98.30;20.30;100793.00;;;;4996158;28;87762;-66
2023/09/28 07:05:46;;;;;;;2.70;1.90;;;20.00;98.10;20.50;100794.00;;;;4990921;28;115359;-65
2023/09/28 07:08:12;;;;;;;3.67;2.15;;;20.30;97.10;20.70;100795.00;;;;4991038;28;87625;-67
2023/09/28 07:10:38;;;;;;;3.92;1.48;;;20.50;96.50;20.90;100799.00;;;;4993460;28;112620;-66
2023/09/28 07:13:06;;;;;;;5.07;1.88;;;20.70;96.30;21.20;100802.00;;;;4994455;28;88974;-66
2023/09/28 07:15:33;;;;;;;2.40;1.90;;;20.90;96.10;21.50;100806.00;;;;4995182;28;88564;-66
2023/09/28 07:17:59;;;;;;;3.00;2.08;;;21.20;95.60;21.70;100813.00;;;;4991751;28;109624;-66
2023/09/28 07:20:26;;;;;;;3.15;1.98;;;21.50;94.80;22.00;100815.00;;;;4991914;28;87672;-66
2023/09/28 07:22:52;;;;;;;12.65;2.88;;;21.70;94.60;22.20;100813.00;;;;4991089;28;87777;-66
2023/09/28 07:25:19;;;;;;;2.38;1.25;;;22.20;93.80;22.50;100810.00;;;;4991987;27;87818;-66
2023/09/28 07:27:49;;;;;;;2.28;1.77;;;22.30;93.50;22.80;100812.00;;;;4992438;28;87992;-66
2023/09/28 07:30:15;;;;;;;4.15;2.08;;;22.50;92.50;23.00;100812.00;;;;4993230;27;86766;-66
2023/09/28 07:32:41;;;;;;;2.08;1.85;;;22.80;91.70;23.30;100824.00;;;;4990071;28;87730;-66
2023/09/28 07:35:09;;;;;;;3.42;2.15;;;23.00;91.40;23.40;100824.00;;;;4991544;28;88058;-67
2023/09/28 07:37:35;;;;;;;2.03;1.90;;;23.20;90.40;23.60;100828.00;;;;4993501;28;88477;-65
2023/09/28 07:40:04;;;;;;;4.13;2.35;;;23.30;89.80;23.80;100833.00;;;;4995540;27;92260;-65
2023/09/28 07:42:30;;;;;;;5.43;2.55;;;23.60;89.50;24.00;100832.00;;;;4993202;27;87834;-65
2023/09/28 07:44:56;;;;;;;17.27;2.13;;;23.80;87.40;24.10;100836.00;;;;4961960;28;89541;-65
2023/09/28 07:47:22;;;;;;;4.05;2.08;;;23.90;85.30;24.30;100829.00;;;;4989469;27;117865;-65
2023/09/28 07:49:48;;;;;;;5.63;2.45;;;24.10;85.40;24.60;100836.00;;;;4974084;28;87950;-65
2023/09/28 07:52:14;;;;;;;2.38;2.03;;;24.30;84.30;24.70;100848.00;;;;4992524;27;87729;-66
2023/09/28 07:54:40;;;;;;;2.72;1.77;;;24.50;82.50;24.90;100831.00;;;;4979687;28;87672;-67
2023/09/28 07:57:07;;;;;;;4.05;1.95;;;24.60;79.80;24.90;100833.00;;;;4989215;28;88073;-66
2023/09/28 07:59:34;;;;;;;1.88;1.65;;;24.70;77.60;24.90;100848.00;;;;4996160;27;88020;-65
2023/09/28 08:02:01;;;;;;;4.13;2.25;;;24.70;76.70;25.00;100844.00;;;;4989344;28;88661;-66
2023/09/28 08:04:27;;;;;;;4.22;2.22;;;24.30;76.40;25.10;100843.00;;;;4993732;27;88513;-67
2023/09/28 08:06:54;;;;;;;3.97;1.52;;;25.00;76.50;25.20;100847.00;;;;4993979;28;95242;-66
2023/09/28 08:09:20;;;;;;;5.03;1.58;;;25.00;75.60;25.40;100849.00;;;;4994188;28;97140;-65
2023/09/28 08:11:48;;;;;;;3.15;1.90;;;25.20;75.30;25.60;100859.00;;;;4992261;28;92387;-67
2023/09/28 08:14:16;;;;;;;2.50;2.05;;;25.30;74.80;25.90;100860.00;;;;4992239;28;87747;-66
2023/09/28 08:16:44;;;;;;;2.72;1.90;;;25.60;72.00;26.00;100859.00;;;;4978293;28;87829;-65
2023/09/28 08:19:10;;;;;;;2.42;2.00;;;25.70;72.00;26.00;100858.00;;;;4982061;28;87214;-67
2023/09/28 08:21:38;;;;;;;3.88;2.00;;;25.80;70.50;26.20;100860.00;;;;4995267;28;87838;-66
2023/09/28 08:24:05;;;;;;;8.13;2.88;;;25.90;70.90;26.50;100873.00;;;;4993378;27;87901;-66
2023/09/28 08:26:31;;;;;;;3.53;1.80;;;26.10;70.70;26.70;100874.00;;;;4992167;27;88952;-66
2023/09/28 08:29:00;;;;;;;2.40;1.70;;;26.40;69.60;27.00;100878.00;;;;4993036;28;99656;-67
2023/09/28 08:31:27;;;;;;;2.05;1.85;;;26.60;68.50;27.10;100881.00;;;;4990236;28;87666;-68
2023/09/28 08:33:53;;;;;;;4.25;2.33;;;26.80;66.80;27.20;100873.00;;;;4992606;27;88497;-67
2023/09/28 08:36:19;;;;;;;2.13;1.52;;;26.90;65.60;27.20;100865.00;;;;4991776;27;100521;-66
2023/09/28 08:38:46;;;;;;;2.40;1.50;;;27.00;65.80;27.30;100870.00;;;;4991540;27;109287;-68
2023/09/28 08:41:16;;;;;;;2.67;2.08;;;27.10;64.90;27.40;100864.00;;;;4993990;27;87755;-66
2023/09/28 08:43:49;;;;;;;4.03;2.17;;;27.20;64.40;27.50;100861.00;;;;4992203;27;87308;-65
2023/09/28 08:46:15;;;;;;;5.40;2.08;;;27.30;64.50;27.60;100857.00;;;;4989728;28;88304;-66
2023/09/28 08:48:47;;;;;;;3.78;2.17;;;27.30;64.10;27.70;100861.00;;;;4994109;28;110503;-67
2023/09/28 08:51:15;;;;;;;1.98;1.40;;;27.50;63.20;27.80;100869.00;;;;4992780;28;88938;-65
2023/09/28 08:53:43;;;;;;;6.97;1.73;;;27.50;62.10;27.80;100864.00;;;;4991369;28;88643;-66
2023/09/28 08:56:09;;;;;;;1.75;1.60;;;27.50;62.00;27.80;100864.00;;;;4979382;28;87830;-67
2023/09/28 08:58:36;;;;;;;4.68;2.15;;;27.60;61.60;27.90;100873.00;;;;4991485;28;87473;-66
2023/09/28 09:01:04;;;;;;;1.85;1.30;;;27.60;61.30;28.00;100862.00;;;;4992663;28;88292;-66
2023/09/28 09:03:34;;;;;;;3.15;2.38;;;27.70;60.80;28.10;100864.00;;;;4990063;27;87985;-66
2023/09/28 09:06:05;;;;;;;3.28;1.55;;;27.80;59.90;28.10;100860.00;;;;4989917;28;88307;-66
2023/09/28 09:08:35;;;;;;;1.83;1.70;;;27.80;59.50;28.20;100858.00;;;;4992355;28;86748;-65
2023/09/28 09:11:01;;;;;;;2.05;1.80;;;27.90;59.90;28.40;100863.00;;;;4990830;28;87984;-66
2023/09/28 09:13:27;;;;;;;9.90;1.85;;;28.10;59.60;28.50;100863.00;;;;4995852;28;88494;-67
2023/09/28 09:15:52;;;;;;;3.40;1.75;;;28.20;59.20;28.50;100859.00;;;;4992770;27;89185;-66
2023/09/28 09:18:19;;;;;;;5.43;2.13;;;28.30;59.00;28.60;100857.00;;;;4991842;28;110301;-66
2023/09/28 09:20:46;;;;;;;6.05;2.28;;;28.40;58.70;28.80;100859.00;;;;4989090;27;87824;-65
2023/09/28 09:23:17;;;;;;;3.67;2.00;;;28.40;57.80;28.80;100850.00;;;;4993716;27;89082;-66
2023/09/28 09:25:47;;;;;;;2.55;1.42;;;28.50;58.00;29.00;100850.00;;;;4985843;27;87402;-66
2023/09/28 09:28:32;;;;;;;6.55;2.08;;;28.60;58.00;29.20;100852.00;;;;4992156;27;87842;-66
2023/09/28 09:30:59;;;;;;;2.63;1.95;;;28.80;57.80;29.40;100853.00;;;;4974106;27;87584;-67
2023/09/28 09:33:25;;;;;;;3.13;2.00;;;29.00;57.70;29.60;100860.00;;;;4992848;27;87223;-69
2023/09/28 09:35:51;;;;;;;3.60;2.30;;;29.20;56.90;29.80;100865.00;;;;4971357;27;95989;-69
2023/09/28 09:38:28;;;;;;;2.85;2.05;;;29.30;56.60;30.00;100867.00;;;;4992345;28;87130;-69
2023/09/28 09:41:04;;;;;;;7.53;2.10;;;29.50;56.00;30.30;100867.00;;;;4975756;27;88745;-69
2023/09/28 09:43:37;;;;;;;3.30;1.90;;;29.80;56.30;30.60;100875.00;;;;4991567;28;88858;-66
2023/09/28 09:46:09;;;;;;;2.55;1.95;;;30.00;56.20;31.10;100866.00;;;;4990401;27;88373;-67
2023/09/28 09:48:43;;;;;;;3.90;2.00;;;30.50;55.90;31.30;100864.00;;;;4990041;27;102302;-67
2023/09/28 09:51:15;;;;;;;1.90;1.73;;;30.70;54.80;31.20;100864.00;;;;4989048;27;87221;-68
2023/09/28 09:53:50;;;;;;;5.25;2.53;;;30.80;53.90;31.10;100868.00;;;;4971082;28;88648;-70
2023/09/28 09:56:16;;;;;;;2.45;1.67;;;30.70;54.00;31.10;100858.00;;;;4989985;28;116633;-69
2023/09/28 09:58:48;;;;;;;1.83;1.52;;;30.70;54.10;31.30;100865.00;;;;4993580;28;87323;-69
2023/09/28 10:01:16;;;;;;;3.67;1.80;;;30.90;54.20;31.60;100866.00;;;;4980116;28;87960;-67
2023/09/28 10:03:47;;;;;;;3.38;1.50;;;31.20;54.00;31.70;100870.00;;;;4978976;28;88128;-67
2023/09/28 10:06:19;;;;;;;4.80;2.22;;;31.70;53.10;31.80;100867.00;;;;4970982;28;89649;-67
2023/09/28 10:08:47;;;;;;;1.67;1.48;;;31.30;52.60;31.70;100864.00;;;;4988986;28;88648;-68
2023/09/28 10:11:13;;;;;;;3.70;2.40;;;31.30;52.50;31.60;100868.00;;;;4987580;28;87598;-68
2023/09/28 10:13:40;;;;;;;3.08;2.45;;;31.20;52.30;31.50;100866.00;;;;4975894;28;116519;-67
2023/09/28 10:16:09;;;;;;;2.25;1.52;;;31.20;52.10;31.40;100869.00;;;;4993573;28;87986;-68
2023/09/28 10:18:37;;;;;;;2.40;1.90;;;31.10;52.20;31.40;100863.00;;;;4990585;27;88276;-70
2023/09/28 10:21:03;;;;;;;3.30;2.22;;;31.00;52.20;31.50;100864.00;;;;4975575;28;87693;-69
2023/09/28 10:23:29;;;;;;;2.08;1.88;;;31.00;52.30;31.50;100870.00;;;;4974588;28;116549;-68
2023/09/28 10:26:12;;;;;;;3.20;2.15;;;31.00;52.10;31.50;100857.00;;;;4974995;28;87636;-69
2023/09/28 10:29:08;;;;;;;3.25;1.58;;;31.10;51.80;31.50;100850.00;;;;4960180;28;87837;-70
2023/09/28 10:31:45;;;;;;;2.40;2.08;;;31.00;51.50;31.60;100863.00;;;;4977073;28;95783;-69
2023/09/28 10:34:20;;;;;;;3.28;1.70;;;31.00;51.70;31.70;100864.00;;;;4974649;28;112692;-68
2023/09/28 10:37:05;;;;;;;3.53;2.33;;;31.20;51.30;31.60;100864.00;;;;4991759;28;88282;-69
2023/09/28 10:39:32;;;;;;;2.35;1.75;;;31.20;51.70;31.80;100863.00;;;;4990533;28;88822;-69
2023/09/28 10:42:10;;;;;;;4.30;2.33;;;31.20;52.00;32.00;100865.00;;;;4974461;28;88208;-69
2023/09/28 10:44:55;;;;;;;3.47;1.77;;;31.40;51.10;32.00;100860.00;;;;4973387;28;87823;-68
2023/09/28 10:47:22;;;;;;;2.53;2.03;;;31.50;51.30;32.00;100862.00;;;;4973746;27;89691;-67